Atlantic, Iowa
Current Conditions -  °F | °C
As of 1:15 AM on Sunday 23 Nov 2014 (Local Time) from KAIO Reporting Station
Overcast Overcast  
Wind Chill: 54°   Ceiling: 600
Heat Index: 54°   Visibility: 9mi
Dew Point: 52°   Wind: 16mph
Humidity: 94%   Direction: 180°S
Pressure: 29.55"   Gusts: 22mph
Location:  41.4°N, 95.01°W
Report Text: KAIO 230715Z AUTO 18014G19KT 9SM OVC006 12/11 A2955 RMK AO2
Loading
Personal Weather Stations






























Interactive Weather Map New forecast layout! Learn more

10-Day Weather Forecast

Advertisements
Track Severe Weather on mobile